Time;durP1;ratioP1;P1;durP2;ratioP2;P2;SDS_P1;SDS_P2;PMS_P1;PMS_P2;Temp;Humidity;BMP_temperature;BMP_pressure;BME280_temperature;BME280_humidity;BME280_pressure;Samples;Min_cycle;Max_cycle;Signal;HPM_P1;HPM_P2
2022/10/19 00:01:22;;;;;;;42.38;25.15;;;12.90;79.60;;;;;;5056141;28;20119;-16
2022/10/19 00:03:53;;;;;;;38.40;22.50;;;12.90;79.70;;;;;;5014693;28;20448;-15
2022/10/19 00:06:27;;;;;;;36.30;21.38;;;12.80;79.70;;;;;;5014060;28;20569;-15
2022/10/19 00:08:58;;;;;;;33.28;21.02;;;12.80;79.70;;;;;;5013998;28;20462;-15
2022/10/19 00:11:26;;;;;;;45.58;26.25;;;12.90;79.40;;;;;;5014196;28;20381;-14
2022/10/19 00:13:54;;;;;;;39.95;23.83;;;12.80;79.70;;;;;;5014008;28;20042;-15
2022/10/19 00:16:22;;;;;;;42.25;24.17;;;12.80;79.80;;;;;;5014221;28;20060;-15
2022/10/19 00:18:49;;;;;;;40.55;23.60;;;12.80;80.00;;;;;;5013796;28;20040;-15
2022/10/19 00:21:18;;;;;;;48.15;27.95;;;12.70;79.90;;;;;;5013910;28;20030;-15
2022/10/19 00:23:44;;;;;;;36.22;22.75;;;12.70;79.90;;;;;;5013763;28;20121;-15
2022/10/19 00:26:11;;;;;;;34.78;21.30;;;12.70;79.90;;;;;;5013817;28;20125;-17
2022/10/19 00:28:37;;;;;;;34.75;21.13;;;12.70;79.80;;;;;;5013841;28;20034;-17
2022/10/19 00:31:09;;;;;;;35.50;20.70;;;12.60;79.90;;;;;;5013563;28;20497;-16
2022/10/19 00:33:36;;;;;;;32.92;20.20;;;12.60;79.70;;;;;;5013799;28;20068;-15
2022/10/19 00:36:04;;;;;;;32.72;19.70;;;12.60;79.80;;;;;;5013583;28;20030;-15
2022/10/19 00:38:30;;;;;;;34.20;20.38;;;12.60;79.80;;;;;;5013533;28;20612;-16
2022/10/19 00:40:56;;;;;;;28.05;17.90;;;12.60;79.80;;;;;;5047857;28;20117;-14
2022/10/19 00:43:26;;;;;;;32.97;20.25;;;12.60;79.70;;;;;;5055337;28;20100;-16
2022/10/19 00:45:52;;;;;;;36.22;22.02;;;12.60;79.70;;;;;;5055184;28;20120;-15
2022/10/19 00:48:26;;;;;;;37.42;22.75;;;12.60;80.00;;;;;;5055189;28;20032;-17
2022/10/19 00:50:55;;;;;;;33.70;19.67;;;12.50;79.90;;;;;;5054937;28;20037;-15
2022/10/19 00:53:22;;;;;;;34.00;20.73;;;12.50;79.80;;;;;;5055344;28;20037;-15
2022/10/19 00:55:48;;;;;;;27.20;17.65;;;12.50;79.80;;;;;;5055278;28;20029;-16
2022/10/19 00:58:14;;;;;;;33.58;19.95;;;12.50;79.90;;;;;;5055344;28;20029;-15
2022/10/19 01:00:40;;;;;;;34.75;20.30;;;12.50;79.90;;;;;;5054961;28;20104;-17
2022/10/19 01:03:09;;;;;;;35.75;21.50;;;12.50;79.90;;;;;;5054650;28;20033;-15
2022/10/19 01:05:35;;;;;;;38.33;22.80;;;12.40;80.00;;;;;;5054855;28;20059;-15
2022/10/19 01:08:01;;;;;;;32.22;20.48;;;12.40;80.00;;;;;;5054622;28;20092;-14
2022/10/19 01:10:50;;;;;;;32.58;19.02;;;12.40;79.90;;;;;;5055117;28;20111;-15
2022/10/19 01:13:59;;;;;;;37.35;21.00;;;12.40;79.90;;;;;;5055052;28;20029;-16
2022/10/19 01:16:57;;;;;;;39.45;23.08;;;12.40;79.90;;;;;;5054485;28;20037;-16
2022/10/19 01:19:59;;;;;;;37.88;22.20;;;12.40;80.20;;;;;;5052663;28;20021;-17
2022/10/19 01:22:36;;;;;;;30.13;18.70;;;12.30;80.30;;;;;;5052610;28;20029;-13
2022/10/19 01:25:23;;;;;;;30.15;18.75;;;12.30;80.20;;;;;;5052914;28;20098;-15
2022/10/19 01:28:22;;;;;;;31.50;18.25;;;12.20;80.10;;;;;;5052344;28;20476;-14
2022/10/19 01:31:25;;;;;;;52.30;28.13;;;12.30;80.20;;;;;;5052226;28;20424;-15
2022/10/19 01:33:59;;;;;;;42.53;22.95;;;12.20;80.40;;;;;;5051953;28;20091;-17
2022/10/19 01:36:34;;;;;;;39.13;21.98;;;12.20;80.60;;;;;;5052274;28;20025;-15
2022/10/19 01:39:12;;;;;;;34.38;19.83;;;12.20;80.60;;;;;;5051944;28;20139;-15
2022/10/19 01:41:46;;;;;;;33.67;21.23;;;12.10;80.50;;;;;;5052063;28;20029;-16
2022/10/19 01:44:21;;;;;;;35.78;20.98;;;12.00;80.40;;;;;;5052086;28;20036;-14
2022/10/19 01:47:02;;;;;;;33.20;19.23;;;12.00;80.40;;;;;;5051862;28;20062;-14
2022/10/19 01:49:40;;;;;;;25.83;16.38;;;12.00;80.50;;;;;;5052453;28;20081;-16
2022/10/19 01:52:09;;;;;;;31.50;18.40;;;12.00;80.50;;;;;;5054040;28;20384;-15
2022/10/19 01:54:56;;;;;;;32.33;19.13;;;12.00;80.20;;;;;;5053852;28;20033;-16
2022/10/19 01:57:37;;;;;;;34.88;18.02;;;12.10;80.00;;;;;;5053797;28;20404;-15
2022/10/19 02:00:07;;;;;;;29.00;16.95;;;12.10;80.00;;;;;;5053864;28;20100;-15
2022/10/19 02:02:39;;;;;;;23.35;15.57;;;12.10;80.00;;;;;;5053774;28;20510;-15
2022/10/19 02:05:07;;;;;;;27.27;16.13;;;12.10;80.00;;;;;;5053605;28;20032;-15
2022/10/19 02:07:35;;;;;;;26.65;16.10;;;12.00;79.80;;;;;;5053527;28;20065;-14
2022/10/19 02:10:01;;;;;;;29.00;18.65;;;12.00;80.00;;;;;;5053953;28;20032;-15
2022/10/19 02:12:29;;;;;;;26.33;15.35;;;11.90;80.20;;;;;;5053951;28;20384;-15
2022/10/19 02:14:59;;;;;;;37.13;21.67;;;11.90;79.90;;;;;;5053247;28;20069;-15
2022/10/19 02:17:34;;;;;;;44.45;22.95;;;11.90;80.20;;;;;;5053548;28;20025;-16
2022/10/19 02:20:00;;;;;;;34.05;20.45;;;11.90;80.40;;;;;;5053850;28;20021;-16
2022/10/19 02:22:27;;;;;;;45.45;25.77;;;11.90;80.50;;;;;;5053701;28;20027;-16
2022/10/19 02:24:53;;;;;;;45.40;25.42;;;11.80;80.60;;;;;;5053498;28;20100;-15
2022/10/19 02:27:19;;;;;;;34.17;20.85;;;11.80;80.70;;;;;;5053701;28;20104;-15
2022/10/19 02:29:45;;;;;;;28.70;18.02;;;11.80;80.60;;;;;;5053953;28;20059;-14
2022/10/19 02:32:11;;;;;;;32.08;19.02;;;11.70;80.50;;;;;;5053313;28;20037;-14
2022/10/19 02:38:02;;;;;;;28.13;16.77;;;11.70;80.50;;;;;;5053470;28;20023;-15
2022/10/19 02:40:36;;;;;;;25.67;16.40;;;11.60;80.40;;;;;;5053200;28;20556;-15
2022/10/19 02:43:08;;;;;;;30.85;17.80;;;11.70;80.40;;;;;;5052988;28;20476;-17
2022/10/19 02:45:50;;;;;;;37.25;21.05;;;11.60;80.30;;;;;;5052696;28;20061;-15
2022/10/19 02:48:23;;;;;;;50.30;25.30;;;11.60;80.50;;;;;;5053484;28;20117;-15
2022/10/19 02:50:50;;;;;;;45.45;24.88;;;11.60;80.50;;;;;;5053535;28;20373;-15
2022/10/19 02:53:17;;;;;;;50.80;26.52;;;11.60;80.60;;;;;;5052971;28;20031;-14
2022/10/19 02:55:44;;;;;;;36.65;21.13;;;11.50;80.90;;;;;;5053248;28;20029;-16
2022/10/19 02:58:10;;;;;;;32.17;18.23;;;11.50;81.00;;;;;;5053143;28;20017;-15
2022/10/19 03:00:36;;;;;;;29.08;17.15;;;11.40;80.80;;;;;;5053265;28;20036;-15
2022/10/19 03:03:02;;;;;;;28.27;18.13;;;11.40;80.80;;;;;;5053061;28;20377;-15
2022/10/19 03:05:28;;;;;;;36.47;21.05;;;11.40;80.90;;;;;;5053517;28;20032;-15
2022/10/19 03:07:54;;;;;;;32.33;19.30;;;11.40;80.90;;;;;;5052728;28;20071;-16
2022/10/19 03:10:20;;;;;;;36.50;20.42;;;11.40;81.00;;;;;;5051654;28;20545;-16
2022/10/19 03:12:46;;;;;;;34.58;20.13;;;11.40;81.00;;;;;;5052654;28;20025;-20
2022/10/19 03:15:17;;;;;;;26.23;16.17;;;11.40;81.20;;;;;;5053068;28;20071;-15
2022/10/19 03:17:43;;;;;;;24.67;15.55;;;11.30;81.00;;;;;;5051549;28;20021;-15
2022/10/19 03:20:10;;;;;;;28.40;17.45;;;11.30;80.90;;;;;;5051556;28;20496;-16
2022/10/19 03:22:36;;;;;;;26.73;17.42;;;11.30;81.10;;;;;;5052792;28;20021;-16
2022/10/19 03:25:03;;;;;;;28.63;16.17;;;11.30;81.10;;;;;;5052598;28;20033;-15
2022/10/19 03:27:28;;;;;;;43.05;22.88;;;11.30;80.90;;;;;;5052731;28;20027;-16
2022/10/19 03:29:54;;;;;;;31.92;17.85;;;11.30;81.00;;;;;;5052687;28;20033;-15
2022/10/19 03:32:21;;;;;;;36.63;20.10;;;11.30;80.90;;;;;;5052971;28;20071;-14
2022/10/19 03:34:47;;;;;;;39.03;20.65;;;11.30;80.90;;;;;;5052521;28;20029;-17
2022/10/19 03:37:14;;;;;;;29.55;18.23;;;11.20;80.90;;;;;;5052540;28;20055;-15
2022/10/19 03:39:40;;;;;;;47.15;25.48;;;11.20;81.00;;;;;;5052489;28;20485;-14
2022/10/19 03:42:05;;;;;;;31.50;19.15;;;11.20;81.10;;;;;;5052918;28;20171;-16
2022/10/19 03:44:31;;;;;;;33.47;20.05;;;11.20;81.40;;;;;;5052519;28;20473;-16
2022/10/19 03:46:57;;;;;;;29.33;18.15;;;11.10;81.40;;;;;;5052279;28;20083;-15
2022/10/19 03:49:23;;;;;;;37.83;21.50;;;11.10;81.40;;;;;;5052471;28;20036;-14
2022/10/19 03:51:49;;;;;;;38.10;21.45;;;11.10;81.20;;;;;;5052720;28;20033;-15
2022/10/19 03:54:16;;;;;;;29.77;18.73;;;11.10;81.40;;;;;;5052491;28;20096;-16
2022/10/19 03:56:43;;;;;;;36.42;22.38;;;11.10;81.40;;;;;;5054216;28;20545;-14
2022/10/19 03:59:13;;;;;;;40.00;21.50;;;11.00;81.60;;;;;;5055966;28;20017;-17
2022/10/19 04:01:42;;;;;;;29.90;16.35;;;11.00;81.50;;;;;;5056482;28;20033;-15
2022/10/19 04:04:12;;;;;;;29.95;18.02;;;11.00;81.40;;;;;;5056354;28;20017;-15
2022/10/19 04:06:40;;;;;;;28.00;17.67;;;10.90;81.50;;;;;;5055779;28;20424;-15
2022/10/19 04:09:08;;;;;;;38.15;21.88;;;10.90;81.60;;;;;;5055813;28;21183;-15
2022/10/19 04:11:35;;;;;;;39.47;23.25;;;10.90;81.60;;;;;;5055888;28;20495;-14
2022/10/19 04:14:01;;;;;;;33.50;20.42;;;10.90;81.70;;;;;;5055856;28;20075;-16
2022/10/19 04:16:29;;;;;;;24.77;16.42;;;10.90;81.70;;;;;;5055978;28;20029;-14
2022/10/19 04:18:55;;;;;;;35.33;20.55;;;10.90;81.80;;;;;;5055575;28;20116;-14
2022/10/19 04:21:25;;;;;;;22.25;14.43;;;10.90;81.80;;;;;;5056394;28;20029;-16
2022/10/19 04:23:56;;;;;;;24.42;16.45;;;10.80;81.60;;;;;;5055779;28;20117;-14
2022/10/19 04:26:22;;;;;;;22.08;12.73;;;10.80;81.70;;;;;;5055648;28;20460;-15
2022/10/19 04:28:48;;;;;;;21.45;13.55;;;10.80;81.60;;;;;;5055487;28;20146;-16
2022/10/19 04:31:14;;;;;;;24.10;15.40;;;10.80;81.70;;;;;;5056232;28;20028;-14
2022/10/19 04:33:41;;;;;;;23.83;15.32;;;10.80;81.80;;;;;;5055818;28;20100;-16
2022/10/19 04:36:09;;;;;;;33.58;20.25;;;10.80;81.70;;;;;;5055606;28;20044;-15
2022/10/19 04:38:36;;;;;;;39.40;21.45;;;10.80;81.70;;;;;;5055314;28;20065;-15
2022/10/19 04:41:14;;;;;;;27.10;17.23;;;10.80;81.60;;;;;;5055179;28;20447;-15
2022/10/19 04:43:40;;;;;;;25.67;16.17;;;10.70;81.70;;;;;;5055987;28;20017;-13
2022/10/19 04:46:12;;;;;;;35.58;20.23;;;10.70;81.60;;;;;;5054040;28;20032;-16
2022/10/19 04:48:39;;;;;;;26.67;15.93;;;10.70;81.60;;;;;;5055608;28;20049;-14
2022/10/19 04:51:05;;;;;;;27.30;16.55;;;10.70;81.70;;;;;;5055324;28;20082;-14
2022/10/19 04:53:32;;;;;;;28.55;17.23;;;10.70;81.70;;;;;;5054963;28;20366;-14
2022/10/19 04:55:58;;;;;;;31.90;16.98;;;10.80;81.60;;;;;;5055192;28;20033;-13
2022/10/19 04:58:24;;;;;;;29.05;17.58;;;10.70;81.60;;;;;;5055306;28;20029;-15
2022/10/19 05:00:50;;;;;;;40.95;22.95;;;10.70;81.70;;;;;;5055360;28;20032;-12
2022/10/19 05:03:16;;;;;;;33.45;19.33;;;10.70;81.70;;;;;;5054964;28;20024;-14
2022/10/19 05:05:42;;;;;;;32.00;18.02;;;10.70;81.90;;;;;;5055194;28;20044;-14
2022/10/19 05:08:09;;;;;;;28.48;17.25;;;10.70;81.90;;;;;;5053591;28;20143;-13
2022/10/19 05:10:36;;;;;;;31.20;17.80;;;10.60;81.90;;;;;;5054822;28;20028;-14
2022/10/19 05:13:02;;;;;;;29.45;16.92;;;10.60;81.80;;;;;;5054842;28;20052;-13
2022/10/19 05:15:29;;;;;;;39.33;21.10;;;10.60;81.80;;;;;;5055193;28;20025;-15
2022/10/19 05:17:56;;;;;;;29.75;17.55;;;10.60;81.90;;;;;;5054974;28;20025;-14
2022/10/19 05:20:22;;;;;;;26.77;16.00;;;10.60;81.80;;;;;;5054946;28;20057;-14
2022/10/19 05:22:49;;;;;;;24.90;14.95;;;10.60;81.80;;;;;;5055002;28;20021;-14
2022/10/19 05:25:15;;;;;;;26.75;17.50;;;10.60;81.70;;;;;;5054613;28;20365;-14
2022/10/19 05:27:41;;;;;;;28.90;16.10;;;10.60;81.60;;;;;;5055347;28;20024;-15
2022/10/19 05:30:08;;;;;;;26.77;16.48;;;10.60;81.60;;;;;;5054750;28;20041;-16
2022/10/19 05:32:34;;;;;;;19.38;12.27;;;10.60;81.70;;;;;;5054648;28;20087;-13
2022/10/19 05:35:00;;;;;;;24.92;14.73;;;10.60;81.60;;;;;;5054070;28;20123;-15
2022/10/19 05:37:26;;;;;;;24.30;15.00;;;10.50;81.60;;;;;;5054469;28;20543;-15
2022/10/19 05:39:53;;;;;;;39.03;20.77;;;10.50;81.70;;;;;;5054160;28;20048;-12
2022/10/19 05:42:19;;;;;;;30.73;18.88;;;10.50;81.70;;;;;;5054999;28;20507;-14
2022/10/19 05:44:45;;;;;;;26.25;14.10;;;10.50;81.90;;;;;;5054194;28;20021;-13
2022/10/19 05:47:11;;;;;;;39.60;22.15;;;10.50;81.60;;;;;;5054235;28;20023;-15
2022/10/19 05:49:36;;;;;;;24.45;14.25;;;10.50;81.60;;;;;;5054087;28;20472;-15
2022/10/19 05:52:03;;;;;;;39.13;22.70;;;10.50;81.40;;;;;;5054081;28;20031;-14
2022/10/19 05:54:28;;;;;;;27.48;17.13;;;10.50;81.50;;;;;;5053901;28;20037;-14
2022/10/19 05:56:54;;;;;;;27.92;16.42;;;10.50;81.70;;;;;;5053995;28;20035;-13
2022/10/19 05:59:21;;;;;;;34.55;19.70;;;10.50;81.80;;;;;;5054173;28;20036;-14
2022/10/19 06:01:47;;;;;;;30.48;18.70;;;10.50;81.80;;;;;;5054104;28;20021;-15
2022/10/19 06:04:13;;;;;;;28.70;17.48;;;10.50;81.90;;;;;;5053813;28;20032;-14
2022/10/19 06:07:13;;;;;;;34.17;18.92;;;10.60;81.80;;;;;;5053507;28;20060;-14
2022/10/19 06:09:47;;;;;;;31.77;18.35;;;10.60;81.80;;;;;;5143526;22;20048;-19
2022/10/19 06:12:20;;;;;;;;;;;10.70;82.00;;;;;;5074428;28;20020;-19
2022/10/19 06:14:55;;;;;;;30.35;18.10;;;10.80;82.60;;;;;;5072206;28;19912;-19
2022/10/19 06:17:21;;;;;;;31.33;17.77;;;10.80;82.50;;;;;;5073510;28;20103;-18
2022/10/19 06:19:47;;;;;;;30.95;16.95;;;11.00;82.50;;;;;;5072119;28;20124;-19
2022/10/19 06:22:22;;;;;;;30.88;16.63;;;11.00;82.40;;;;;;5072250;28;20118;-18
2022/10/19 06:24:54;;;;;;;37.72;20.13;;;11.20;82.40;;;;;;5073640;28;20059;-18
2022/10/19 06:27:28;;;;;;;53.83;28.33;;;11.30;82.40;;;;;;5073306;28;20104;-19
2022/10/19 06:30:05;;;;;;;40.75;21.33;;;11.40;82.40;;;;;;5072077;28;20021;-19
2022/10/19 06:32:38;;;;;;;48.08;23.13;;;11.60;82.50;;;;;;5074422;28;20029;-19
2022/10/19 06:35:12;;;;;;;43.00;21.70;;;11.70;82.60;;;;;;5072937;28;20111;-18
2022/10/19 06:37:46;;;;;;;39.10;21.52;;;11.90;82.80;;;;;;5073123;28;20031;-19
2022/10/19 06:43:42;;;;;;;46.38;24.50;;;12.20;82.60;;;;;;5073393;28;20521;-19
2022/10/19 06:46:16;;;;;;;38.80;22.13;;;12.40;82.60;;;;;;5073310;28;20112;-18
2022/10/19 07:02:40;;;;;;;55.10;29.35;;;13.70;81.90;;;;;;5073706;28;20039;-19
2022/10/19 07:05:07;;;;;;;46.53;26.02;;;14.10;81.50;;;;;;5072778;28;20403;-19
2022/10/19 07:07:41;;;;;;;41.80;23.80;;;14.30;81.20;;;;;;5072974;28;20041;-18
2022/10/19 07:13:38;;;;;;;44.80;24.73;;;14.90;80.30;;;;;;5073069;28;20403;-20
2022/10/19 07:16:15;;;;;;;61.53;32.17;;;15.30;79.80;;;;;;5072817;28;20086;-19
2022/10/19 07:22:03;;;;;;;58.20;30.13;;;16.00;78.20;;;;;;5073180;28;20032;-19
2022/10/19 07:27:51;;;;;;;53.72;27.38;;;16.20;77.70;;;;;;5072914;28;20101;-18
2022/10/19 07:30:21;;;;;;;67.10;34.28;;;16.40;77.40;;;;;;5072691;28;20417;-19
2022/10/19 07:42:53;;;;;;;53.15;28.73;;;16.80;77.20;;;;;;5076158;28;20037;-18
2022/10/19 07:48:41;;;;;;;57.08;30.23;;;16.90;76.80;;;;;;5076205;28;20027;-17
2022/10/19 07:51:10;;;;;;;48.58;27.77;;;17.10;76.50;;;;;;5074981;28;20074;-17
2022/10/19 07:53:36;;;;;;;49.92;28.10;;;17.20;76.20;;;;;;5076484;28;20051;-17
2022/10/19 08:02:46;;;;;;;41.08;23.33;;;17.50;75.80;;;;;;5076620;28;20489;-21
2022/10/19 08:05:12;;;;;;;51.47;27.65;;;17.70;75.60;;;;;;5076430;28;20100;-18
2022/10/19 09:02:11;;;;;;;37.95;23.80;;;22.00;67.50;;;;;;5053005;28;20118;-18
2022/10/19 09:04:40;;;;;;;35.85;22.13;;;22.40;66.70;;;;;;5054859;28;20040;-16
2022/10/19 09:07:24;;;;;;;39.83;23.10;;;22.80;65.80;;;;;;5054700;28;20032;-16
2022/10/19 09:09:57;;;;;;;35.33;22.02;;;23.10;65.20;;;;;;5054886;28;20439;-18
2022/10/19 09:12:36;;;;;;;;;;;23.40;63.80;;;;;;5055615;28;20029;-16
2022/10/19 09:15:10;;;;;;;40.55;25.58;;;23.80;63.20;;;;;;5055022;28;19912;-16
2022/10/19 09:17:36;;;;;;;40.95;25.77;;;24.10;61.60;;;;;;5055408;28;20021;-15
2022/10/19 09:20:25;;;;;;;37.15;23.48;;;24.50;61.10;;;;;;5054948;28;20029;-17
2022/10/19 09:23:12;;;;;;;33.88;22.40;;;24.80;60.50;;;;;;5054318;28;20350;-16
2022/10/19 09:25:39;;;;;;;34.33;23.23;;;25.10;60.10;;;;;;5055048;28;20032;-17
2022/10/19 09:28:40;;;;;;;39.72;25.60;;;25.40;59.40;;;;;;5054690;28;20021;-16
2022/10/19 09:31:16;;;;;;;40.13;25.85;;;25.70;58.90;;;;;;5054555;28;20112;-16
2022/10/19 09:33:45;;;;;;;37.53;24.00;;;26.00;57.90;;;;;;5054709;28;20025;-15
2022/10/19 09:36:11;;;;;;;35.17;24.33;;;26.30;56.70;;;;;;5054199;28;20039;-15
2022/10/19 09:38:37;;;;;;;35.35;24.83;;;26.50;54.90;;;;;;5054190;28;20029;-15
2022/10/19 09:41:21;;;;;;;33.47;21.27;;;26.70;54.30;;;;;;5052837;28;20108;-16
2022/10/19 09:43:53;;;;;;;36.13;24.38;;;26.80;54.90;;;;;;5054236;28;20025;-15
2022/10/19 09:46:42;;;;;;;29.65;22.25;;;26.90;54.00;;;;;;5054497;28;20036;-16
2022/10/19 09:49:08;;;;;;;45.22;28.75;;;27.10;53.60;;;;;;5052561;28;20037;-16
2022/10/19 09:52:00;;;;;;;31.70;22.13;;;27.30;53.00;;;;;;5054431;28;20025;-16
2022/10/19 09:54:35;;;;;;;29.40;21.80;;;27.50;53.00;;;;;;5052920;28;20519;-16
2022/10/19 09:57:02;;;;;;;34.33;23.08;;;27.70;53.10;;;;;;5053751;28;20384;-16
2022/10/19 09:59:36;;;;;;;33.25;21.83;;;27.80;53.00;;;;;;5054995;28;20464;-15
2022/10/19 10:02:13;;;;;;;33.97;22.48;;;27.90;52.50;;;;;;5055675;28;20031;-16
2022/10/19 10:04:39;;;;;;;29.48;20.75;;;28.00;52.00;;;;;;5074031;28;20031;-16
2022/10/19 10:07:05;;;;;;;35.63;24.63;;;28.20;52.50;;;;;;5073625;28;20056;-15
2022/10/19 10:09:37;;;;;;;32.55;23.02;;;28.40;51.80;;;;;;5073903;28;20024;-16
2022/10/19 10:12:07;;;;;;;29.00;20.27;;;28.60;50.80;;;;;;5073824;28;20025;-15
2022/10/19 10:14:35;;;;;;;34.97;25.10;;;28.70;50.60;;;;;;5073530;28;20045;-15
2022/10/19 10:17:17;;;;;;;27.75;18.52;;;28.90;49.90;;;;;;5073646;28;20055;-16
2022/10/19 10:20:05;;;;;;;18.90;13.95;;;28.80;44.70;;;;;;5074019;28;20391;-16
2022/10/19 10:22:35;;;;;;;19.13;13.93;;;28.70;44.30;;;;;;5073552;28;20028;-15
2022/10/19 10:25:11;;;;;;;22.27;16.65;;;28.90;48.20;;;;;;5073514;28;20040;-14
2022/10/19 10:27:38;;;;;;;21.63;16.27;;;29.40;47.40;;;;;;5073810;28;20025;-16
2022/10/19 10:30:14;;;;;;;20.98;15.07;;;29.80;46.30;;;;;;5073382;28;20033;-18
2022/10/19 10:32:49;;;;;;;19.73;14.88;;;30.20;45.80;;;;;;5073617;28;20468;-16
2022/10/19 10:35:31;;;;;;;20.67;14.93;;;30.50;45.20;;;;;;5127453;22;20052;-13
2022/10/19 10:38:17;;;;;;;23.17;16.40;;;30.60;43.00;;;;;;5073407;28;20475;-14
2022/10/19 10:40:52;;;;;;;19.70;13.75;;;30.60;41.40;;;;;;5073487;28;20467;-14
2022/10/19 10:43:21;;;;;;;20.17;14.02;;;30.80;43.40;;;;;;5073754;28;20021;-14
2022/10/19 10:45:53;;;;;;;18.33;14.40;;;31.10;43.70;;;;;;5073642;28;20028;-14
2022/10/19 10:48:50;;;;;;;18.05;13.93;;;31.40;42.20;;;;;;5073371;28;20479;-14
2022/10/19 10:51:32;;;;;;;21.30;15.00;;;31.70;42.20;;;;;;5073149;28;20020;-14
2022/10/19 10:54:20;;;;;;;20.05;13.95;;;31.90;42.00;;;;;;5073812;28;20046;-14
2022/10/19 10:57:18;;;;;;;18.00;12.82;;;32.30;39.10;;;;;;5073485;28;20519;-14
2022/10/19 11:00:11;;;;;;;20.52;14.38;;;32.60;36.80;;;;;;5051068;28;20032;-14
2022/10/19 11:03:04;;;;;;;18.15;13.23;;;32.90;39.40;;;;;;5050952;28;20063;-13
2022/10/19 11:05:31;;;;;;;;;;;33.20;38.40;;;;;;5051249;28;20033;-14
2022/10/19 11:08:25;;;;;;;18.35;13.27;;;33.40;35.60;;;;;;5054910;28;19909;-14
2022/10/19 11:11:03;;;;;;;20.33;13.95;;;33.40;36.90;;;;;;5055035;28;20176;-14
2022/10/19 11:13:47;;;;;;;19.92;13.60;;;33.40;38.00;;;;;;5055842;28;20025;-14
2022/10/19 11:16:21;;;;;;;24.27;17.48;;;33.50;38.20;;;;;;5054986;28;20090;-14
2022/10/19 11:18:52;;;;;;;17.02;12.57;;;33.40;37.60;;;;;;5054579;28;20033;-15
2022/10/19 11:21:28;;;;;;;18.27;13.23;;;33.00;38.60;;;;;;5054909;28;20029;-14
2022/10/19 11:24:05;;;;;;;17.70;12.80;;;32.70;39.30;;;;;;5055342;28;20033;-13
2022/10/19 11:26:49;;;;;;;17.73;12.80;;;32.70;37.20;;;;;;5054720;28;20115;-15
2022/10/19 11:29:26;;;;;;;17.98;12.73;;;32.70;39.10;;;;;;5054849;28;20061;-14
2022/10/19 11:31:54;;;;;;;15.48;11.98;;;32.90;39.20;;;;;;5054703;28;20124;-14
2022/10/19 11:34:20;;;;;;;17.20;13.32;;;33.20;38.80;;;;;;5054259;28;20063;-14
2022/10/19 11:36:54;;;;;;;15.48;12.60;;;33.50;38.20;;;;;;5072159;28;20029;-14
2022/10/19 11:39:34;;;;;;;15.65;11.32;;;33.60;38.40;;;;;;5077282;28;20414;-14
2022/10/19 11:42:07;;;;;;;20.75;13.48;;;33.80;38.00;;;;;;5076918;28;20032;-14
2022/10/19 11:44:36;;;;;;;21.63;15.63;;;34.00;37.60;;;;;;5076848;28;20035;-14
2022/10/19 11:47:07;;;;;;;21.63;16.42;;;34.20;36.70;;;;;;5076560;28;20051;-15
2022/10/19 11:49:48;;;;;;;17.52;14.15;;;33.80;36.60;;;;;;5076298;28;20036;-14
2022/10/19 11:52:45;;;;;;;18.77;14.18;;;33.40;37.30;;;;;;5076384;28;20029;-15
2022/10/19 11:55:20;;;;;;;20.48;15.32;;;33.40;37.90;;;;;;5076908;28;20452;-14
2022/10/19 11:57:54;;;;;;;14.93;12.23;;;33.20;37.30;;;;;;5076544;28;20052;-14
2022/10/19 12:00:20;;;;;;;16.75;12.02;;;33.30;37.40;;;;;;5076236;28;20028;-14
2022/10/19 12:03:14;;;;;;;18.73;12.95;;;33.50;37.00;;;;;;5076048;28;20104;-14
2022/10/19 12:06:00;;;;;;;14.00;11.50;;;34.00;35.30;;;;;;5076093;28;20020;-14
2022/10/19 12:09:07;;;;;;;15.95;11.95;;;34.30;36.30;;;;;;5076203;28;20044;-14
2022/10/19 12:11:59;;;;;;;14.55;11.60;;;34.70;35.00;;;;;;5075973;28;20027;-14
2022/10/19 12:14:33;;;;;;;15.55;11.27;;;35.10;34.10;;;;;;5076226;28;20085;-14
2022/10/19 12:17:09;;;;;;;15.65;11.90;;;35.50;34.20;;;;;;5075577;28;20024;-13
2022/10/19 12:19:45;;;;;;;14.00;11.57;;;35.80;33.60;;;;;;5076114;28;20031;-15
2022/10/19 12:22:30;;;;;;;15.63;11.00;;;36.00;32.70;;;;;;5076104;28;20085;-14
2022/10/19 12:25:00;;;;;;;13.38;10.50;;;36.30;32.20;;;;;;5075718;28;20082;-14
2022/10/19 12:27:36;;;;;;;13.20;10.55;;;36.40;32.60;;;;;;5075758;28;20024;-14
2022/10/19 12:30:12;;;;;;;13.88;10.57;;;36.30;32.80;;;;;;5075653;28;20033;-14
2022/10/19 12:33:04;;;;;;;12.98;10.88;;;36.40;32.30;;;;;;5075676;28;20464;-14
2022/10/19 12:35:48;;;;;;;11.50;9.80;;;36.50;31.70;;;;;;5075288;28;20051;-15
2022/10/19 12:38:34;;;;;;;17.38;13.35;;;36.70;31.80;;;;;;5076208;28;20091;-15
2022/10/19 12:41:17;;;;;;;18.88;15.07;;;36.90;30.70;;;;;;5075290;28;20054;-14
2022/10/19 12:44:11;;;;;;;16.98;12.07;;;36.60;31.30;;;;;;5075472;28;20021;-14
2022/10/19 12:46:37;;;;;;;19.83;13.88;;;35.90;31.70;;;;;;5075425;28;20036;-14
2022/10/19 12:49:29;;;;;;;15.30;11.88;;;35.50;32.90;;;;;;5075009;28;20029;-14
2022/10/19 12:52:00;;;;;;;16.65;11.52;;;35.10;32.80;;;;;;5053167;28;20033;-14
2022/10/19 12:54:31;;;;;;;18.73;14.07;;;34.70;33.90;;;;;;5053359;28;20033;-14
2022/10/19 12:57:00;;;;;;;21.85;13.80;;;34.60;33.80;;;;;;5053079;28;20033;-14
2022/10/19 12:59:33;;;;;;;21.85;12.20;;;34.60;34.10;;;;;;5053048;28;20065;-14
2022/10/19 13:02:01;;;;;;;18.88;13.48;;;34.80;33.90;;;;;;5052997;28;20032;-14
2022/10/19 13:04:33;;;;;;;17.15;11.77;;;35.20;32.20;;;;;;5036237;28;20451;-14
2022/10/19 13:07:03;;;;;;;16.00;11.23;;;35.40;32.20;;;;;;5052872;28;20100;-14
2022/10/19 13:09:41;;;;;;;13.23;10.63;;;35.50;32.10;;;;;;5052883;28;20041;-14
2022/10/19 13:12:13;;;;;;;14.02;10.90;;;35.80;32.00;;;;;;5052786;28;20029;-14
2022/10/19 13:14:49;;;;;;;41.78;12.73;;;36.00;31.80;;;;;;5052687;28;20079;-15
2022/10/19 13:17:36;;;;;;;17.73;13.63;;;36.10;31.40;;;;;;5052757;28;20017;-14
2022/10/19 13:20:14;;;;;;;19.35;10.48;;;36.00;30.80;;;;;;5052834;28;20064;-14
2022/10/19 13:22:45;;;;;;;15.07;10.27;;;35.70;30.70;;;;;;5052918;28;20040;-14
2022/10/19 13:25:23;;;;;;;17.27;11.30;;;35.60;31.70;;;;;;5052565;28;20033;-14
2022/10/19 13:27:53;;;;;;;13.75;10.90;;;35.50;31.00;;;;;;5053485;28;20056;-13
2022/10/19 13:30:37;;;;;;;15.73;9.60;;;35.20;31.20;;;;;;5073730;28;20024;-14
2022/10/19 13:33:24;;;;;;;19.30;9.68;;;34.90;32.20;;;;;;5074547;28;20036;-14
2022/10/19 13:35:59;;;;;;;16.67;9.18;;;34.90;32.60;;;;;;5074499;28;20068;-14
2022/10/19 13:38:29;;;;;;;19.67;13.15;;;35.10;32.70;;;;;;5074317;28;20086;-14
2022/10/19 13:41:43;;;;;;;13.05;9.55;;;35.30;32.00;;;;;;5074355;28;20048;-14
2022/10/19 13:44:12;;;;;;;19.02;10.43;;;35.20;31.70;;;;;;5052042;28;20425;-14
2022/10/19 13:47:23;;;;;;;17.35;9.27;;;35.20;32.50;;;;;;5052143;28;20104;-14
2022/10/19 13:50:18;;;;;;;20.45;11.05;;;35.30;31.30;;;;;;5052371;28;20029;-14
2022/10/19 13:53:23;;;;;;;13.43;8.93;;;35.40;31.20;;;;;;5042850;28;20068;-13
2022/10/19 13:56:11;;;;;;;13.80;9.82;;;35.40;29.80;;;;;;5052095;28;20083;-14
2022/10/19 13:59:26;;;;;;;13.32;9.75;;;35.10;30.60;;;;;;5052221;28;20037;-14
2022/10/19 14:02:22;;;;;;;11.77;9.27;;;34.50;30.80;;;;;;5019680;28;20066;-14
2022/10/19 14:04:51;;;;;;;14.57;8.75;;;33.90;31.40;;;;;;5051564;28;20023;-15
2022/10/19 14:07:32;;;;;;;12.38;8.52;;;33.70;32.50;;;;;;5051778;28;20410;-13
2022/10/19 14:10:13;;;;;;;16.35;10.48;;;33.70;32.40;;;;;;5051675;28;20025;-14
2022/10/19 14:12:42;;;;;;;25.58;9.88;;;33.50;32.20;;;;;;5051697;28;20020;-14
2022/10/19 14:15:29;;;;;;;14.52;8.25;;;33.30;33.10;;;;;;5051675;28;20124;-14
2022/10/19 14:17:56;;;;;;;20.65;9.15;;;33.00;33.10;;;;;;5051804;28;20032;-14
2022/10/19 14:20:37;;;;;;;18.30;8.20;;;33.00;33.70;;;;;;5048770;28;20055;-14
2022/10/19 14:23:23;;;;;;;24.65;8.30;;;33.10;33.30;;;;;;5073283;28;20116;-14
2022/10/19 14:25:59;;;;;;;27.65;7.93;;;33.10;33.90;;;;;;5073799;28;20028;-14
2022/10/19 14:28:26;;;;;;;21.27;8.38;;;33.00;34.20;;;;;;5073762;28;20423;-14
2022/10/19 14:31:05;;;;;;;21.10;8.48;;;33.00;34.40;;;;;;5073476;28;20032;-14
2022/10/19 14:33:35;;;;;;;19.38;8.35;;;32.90;34.60;;;;;;5073454;28;20047;-14
2022/10/19 14:36:01;;;;;;;16.23;8.55;;;32.90;34.90;;;;;;5073182;28;20123;-14
2022/10/19 14:38:30;;;;;;;20.20;9.75;;;32.90;35.00;;;;;;5073300;28;20481;-14
2022/10/19 14:40:56;;;;;;;14.90;8.65;;;32.90;35.00;;;;;;5072890;28;20028;-13
2022/10/19 14:43:28;;;;;;;27.67;9.88;;;32.70;35.40;;;;;;5072030;28;20028;-13
2022/10/19 14:46:14;;;;;;;25.57;9.33;;;32.70;35.40;;;;;;5073291;28;20027;-14